createdAt,value
2023-01-09T00:00:52.399Z,12.63
2023-01-09T00:03:19.064Z,8.47
2023-01-09T00:05:45.790Z,18.23
2023-01-09T00:08:12.407Z,14.60
2023-01-09T00:10:39.074Z,14.13
2023-01-09T00:13:05.710Z,13.43
2023-01-09T00:15:32.289Z,15.83
2023-01-09T00:17:58.889Z,10.33
2023-01-09T00:20:25.519Z,11.13
2023-01-09T00:22:52.183Z,11.27
2023-01-09T00:25:18.946Z,11.37
2023-01-09T00:27:54.931Z,11.87
2023-01-09T00:30:21.676Z,13.13
2023-01-09T00:32:48.343Z,14.27
2023-01-09T00:35:17.696Z,14.37
2023-01-09T00:37:48.911Z,12.83
2023-01-09T00:40:17.438Z,11.23
2023-01-09T00:42:48.522Z,13.40
2023-01-09T00:45:20.277Z,11.57
2023-01-09T00:47:52.590Z,11.80
2023-01-09T00:50:23.466Z,12.80
2023-01-09T00:52:52.094Z,14.37
2023-01-09T00:55:19.037Z,12.83
2023-01-09T00:57:50.825Z,13.03
2023-01-09T01:00:18.210Z,13.77
2023-01-09T01:02:45.224Z,11.00
2023-01-09T01:05:30.910Z,17.77
2023-01-09T01:07:57.548Z,15.27
2023-01-09T01:10:26.162Z,15.40
2023-01-09T01:12:53.412Z,14.40
2023-01-09T01:15:21.235Z,16.90
2023-01-09T01:17:48.572Z,10.90
2023-01-09T01:20:17.936Z,10.20
2023-01-09T01:22:44.912Z,11.70
2023-01-09T01:25:12.992Z,10.47
2023-01-09T01:27:39.844Z,12.50
2023-01-09T01:30:09.445Z,11.57
2023-01-09T01:32:41.397Z,8.60
2023-01-09T01:35:09.228Z,9.40
2023-01-09T01:37:43.388Z,9.47
2023-01-09T01:40:11.344Z,13.83
2023-01-09T01:42:44.879Z,11.00
2023-01-09T01:45:16.137Z,13.47
2023-01-09T01:47:50.310Z,22.80
2023-01-09T01:50:19.692Z,36.70
2023-01-09T01:52:59.024Z,43.33
2023-01-09T01:55:26.188Z,36.23
2023-01-09T02:01:05.913Z,15.10
2023-01-09T02:07:20.491Z,8.37
2023-01-09T02:10:21.647Z,6.40
